createdAt,value
2018-03-03T00:02:45.499Z,85.40
2018-03-03T00:05:15.858Z,86.60
2018-03-03T00:07:42.909Z,88.00
2018-03-03T00:12:40.671Z,88.30
2018-03-03T00:15:07.721Z,88.20
2018-03-03T00:17:34.776Z,87.90
2018-03-03T00:20:01.888Z,88.00
2018-03-03T00:22:41.404Z,88.10
2018-03-03T00:25:08.581Z,87.80
2018-03-03T00:27:35.647Z,99.90
2018-03-03T00:30:02.713Z,99.90
2018-03-03T00:32:29.842Z,91.30
2018-03-03T00:34:56.933Z,88.50
2018-03-03T00:40:05.344Z,88.30
2018-03-03T00:42:33.029Z,89.10
2018-03-03T00:47:38.920Z,87.60
2018-03-03T00:50:06.000Z,87.10
2018-03-03T00:52:33.335Z,86.50
2018-03-03T00:55:00.650Z,86.80
2018-03-03T00:57:30.049Z,87.40
2018-03-03T00:59:57.077Z,88.00
2018-03-03T01:02:24.191Z,87.50
2018-03-03T01:04:51.306Z,87.40
2018-03-03T01:07:18.361Z,86.90
2018-03-03T01:09:46.932Z,87.20
2018-03-03T01:12:13.664Z,88.50
2018-03-03T01:14:40.733Z,88.30
2018-03-03T01:17:07.875Z,88.00
2018-03-03T01:19:34.934Z,87.70
2018-03-03T01:22:02.029Z,88.80
2018-03-03T01:24:29.159Z,88.00
2018-03-03T01:26:56.238Z,88.10
2018-03-03T01:29:23.330Z,88.30
2018-03-03T01:31:50.714Z,88.70
2018-03-03T01:34:17.789Z,89.10
2018-03-03T01:36:44.899Z,89.20
2018-03-03T01:39:12.935Z,88.70
2018-03-03T01:41:39.995Z,87.90
2018-03-03T01:44:07.080Z,87.00
2018-03-03T01:46:34.186Z,87.40
2018-03-03T01:49:01.262Z,88.70
2018-03-03T01:51:40.207Z,89.80
2018-03-03T01:54:07.268Z,90.00
2018-03-03T01:56:34.330Z,90.30
2018-03-03T01:59:01.477Z,88.40
2018-03-03T02:01:29.248Z,88.60
2018-03-03T02:03:56.324Z,90.80
2018-03-03T02:09:02.341Z,92.80
2018-03-03T02:11:29.495Z,93.00
2018-03-03T02:13:56.554Z,92.40
2018-03-03T02:16:23.616Z,91.50
2018-03-03T02:18:50.723Z,90.30
2018-03-03T02:21:17.804Z,88.10
2018-03-03T02:23:44.875Z,88.50
2018-03-03T02:26:12.017Z,90.30
2018-03-03T02:28:39.104Z,91.40
2018-03-03T02:31:06.180Z,91.90
2018-03-03T02:33:33.312Z,92.40
2018-03-03T02:36:00.371Z,91.90
2018-03-03T02:38:27.435Z,91.00
2018-03-03T02:40:54.564Z,91.40
2018-03-03T02:43:21.636Z,91.40
2018-03-03T02:45:48.786Z,90.70
2018-03-03T02:48:15.901Z,89.90
2018-03-03T02:50:42.965Z,89.30
2018-03-03T02:53:10.027Z,89.00
2018-03-03T02:55:37.148Z,88.80
2018-03-03T02:58:04.211Z,89.80
2018-03-03T03:00:31.265Z,88.90
2018-03-03T03:02:58.390Z,89.30
2018-03-03T03:05:25.451Z,89.20
2018-03-03T03:10:30.573Z,89.00
2018-03-03T03:12:57.635Z,89.00
2018-03-03T03:15:24.703Z,88.50
2018-03-03T03:17:51.820Z,88.60
2018-03-03T03:20:18.905Z,88.70
2018-03-03T03:22:45.977Z,88.90
2018-03-03T03:25:13.096Z,89.10
2018-03-03T03:27:40.170Z,88.40
2018-03-03T03:30:07.247Z,88.80
2018-03-03T03:32:34.344Z,88.70
2018-03-03T03:35:04.353Z,88.40
2018-03-03T03:37:31.410Z,88.70
2018-03-03T03:39:58.540Z,89.50
2018-03-03T03:42:26.458Z,90.50
2018-03-03T03:44:53.530Z,92.00
2018-03-03T03:47:20.663Z,91.60
2018-03-03T03:49:47.731Z,92.00
2018-03-03T03:52:14.783Z,91.90
2018-03-03T03:54:41.913Z,92.60
2018-03-03T03:57:08.995Z,93.20
2018-03-03T03:59:36.062Z,93.00
2018-03-03T04:02:03.181Z,93.30
2018-03-03T04:04:30.280Z,94.00
2018-03-03T04:09:24.560Z,93.10
2018-03-03T04:11:51.631Z,92.20
2018-03-03T04:14:18.694Z,91.40
2018-03-03T04:16:45.812Z,91.20
2018-03-03T04:19:12.888Z,90.50
2018-03-03T04:21:39.962Z,90.90
2018-03-03T04:24:07.089Z,91.20
2018-03-03T04:26:34.162Z,91.60
2018-03-03T04:29:01.243Z,93.50
2018-03-03T04:34:07.372Z,95.00
2018-03-03T04:36:34.479Z,94.60
2018-03-03T04:39:01.548Z,94.00
2018-03-03T04:41:28.626Z,93.10
2018-03-03T04:43:55.755Z,93.50
2018-03-03T04:46:22.823Z,92.70
2018-03-03T04:48:49.890Z,92.30
2018-03-03T04:51:16.995Z,92.90
2018-03-03T04:53:44.066Z,93.50
2018-03-03T04:56:11.131Z,93.20
2018-03-03T04:58:38.252Z,92.60
2018-03-03T05:01:05.323Z,91.60
2018-03-03T05:03:32.378Z,91.10
2018-03-03T05:05:59.968Z,91.10
2018-03-03T05:08:27.023Z,90.70
2018-03-03T05:10:54.083Z,92.10
2018-03-03T05:13:21.190Z,91.70
2018-03-03T05:18:15.403Z,92.50
2018-03-03T05:20:42.545Z,91.80
2018-03-03T05:23:09.662Z,91.80
2018-03-03T05:25:36.708Z,91.60
2018-03-03T05:28:03.833Z,91.10
2018-03-03T05:33:09.153Z,93.40
2018-03-03T05:35:36.219Z,93.80
2018-03-03T05:38:03.852Z,92.30
2018-03-03T05:40:30.968Z,92.30
2018-03-03T05:42:58.034Z,92.00
2018-03-03T05:45:25.108Z,92.60
2018-03-03T05:47:55.715Z,93.20
2018-03-03T05:50:22.790Z,93.50
2018-03-03T05:52:49.852Z,93.10
2018-03-03T05:55:16.984Z,93.40
2018-03-03T05:57:44.069Z,93.00
2018-03-03T06:00:11.142Z,93.60
2018-03-03T06:05:05.417Z,93.40
2018-03-03T06:07:32.492Z,93.50
2018-03-03T06:09:59.615Z,94.00
2018-03-03T06:12:26.706Z,94.70
2018-03-03T06:14:57.109Z,94.60
2018-03-03T06:19:51.389Z,94.20
2018-03-03T06:24:45.655Z,94.50
2018-03-03T06:27:12.722Z,95.60
2018-03-03T06:29:39.804Z,96.20
2018-03-03T06:34:44.922Z,95.40
2018-03-03T06:37:12.054Z,96.30
2018-03-03T06:39:39.120Z,95.80
2018-03-03T06:42:06.189Z,95.40
2018-03-03T06:44:33.755Z,97.00
2018-03-03T06:47:00.819Z,97.80
2018-03-03T06:49:28.734Z,97.10
2018-03-03T06:51:55.835Z,96.70
2018-03-03T06:54:22.904Z,98.30
2018-03-03T06:56:49.988Z,99.10
2018-03-03T07:01:44.257Z,98.20
2018-03-03T07:04:11.423Z,99.10
2018-03-03T07:06:38.440Z,99.40
2018-03-03T07:09:05.510Z,99.10
2018-03-03T07:11:32.594Z,99.00
2018-03-03T07:13:59.716Z,98.80
2018-03-03T07:23:48.323Z,98.80
2018-03-03T07:28:43.446Z,97.50
2018-03-03T07:31:10.551Z,97.40
2018-03-03T07:33:37.876Z,97.20
2018-03-03T07:36:05.022Z,97.50
2018-03-03T07:38:32.565Z,97.30
2018-03-03T07:41:00.556Z,96.50
2018-03-03T07:43:27.683Z,96.20
2018-03-03T07:45:54.759Z,96.30
2018-03-03T07:48:21.830Z,95.10
2018-03-03T07:50:48.951Z,94.70
2018-03-03T07:53:16.031Z,95.30
2018-03-03T07:58:31.228Z,95.30
2018-03-03T08:00:58.291Z,94.30
2018-03-03T08:03:26.846Z,93.30
2018-03-03T08:05:54.435Z,92.20
2018-03-03T08:08:21.520Z,89.40
2018-03-03T08:10:48.613Z,90.50
2018-03-03T08:13:15.740Z,92.20
2018-03-03T08:15:42.837Z,92.70
2018-03-03T08:18:09.890Z,93.00
2018-03-03T08:20:37.012Z,94.20
2018-03-03T08:23:04.102Z,92.80
2018-03-03T08:25:31.522Z,91.10
2018-03-03T08:27:58.641Z,91.30
2018-03-03T08:30:25.708Z,87.30
2018-03-03T08:32:53.735Z,88.80
2018-03-03T08:35:24.100Z,86.80
2018-03-03T08:40:28.668Z,86.20
2018-03-03T08:45:30.182Z,83.30
2018-03-03T08:53:14.713Z,81.10
2018-03-03T08:55:42.279Z,80.50
2018-03-03T09:00:41.105Z,80.30
2018-03-03T09:03:14.452Z,81.70
2018-03-03T09:05:44.096Z,79.10
2018-03-03T09:08:12.529Z,78.50
2018-03-03T09:19:28.605Z,80.70
2018-03-03T09:21:55.763Z,81.20
2018-03-03T09:26:54.039Z,81.80
2018-03-03T09:29:21.191Z,78.50
2018-03-03T09:31:48.850Z,78.30
2018-03-03T09:36:50.909Z,78.50
2018-03-03T09:42:04.167Z,78.60
2018-03-03T09:49:56.394Z,76.90
2018-03-03T09:57:38.616Z,75.50
2018-03-03T10:00:06.260Z,74.90
2018-03-03T10:02:33.215Z,72.60
2018-03-03T10:05:00.336Z,73.80
2018-03-03T10:07:27.392Z,73.70
2018-03-03T10:09:54.470Z,75.50
2018-03-03T10:17:19.902Z,72.80
2018-03-03T10:22:14.743Z,70.70
2018-03-03T10:24:41.817Z,68.20
2018-03-03T10:27:08.936Z,68.30
2018-03-03T10:29:36.001Z,67.30
2018-03-03T10:32:03.087Z,70.40
2018-03-03T10:34:30.208Z,65.20
2018-03-03T10:36:57.301Z,63.90
2018-03-03T10:39:24.361Z,55.70
2018-03-03T10:41:51.909Z,58.10
2018-03-03T10:46:57.529Z,55.10
2018-03-03T10:49:24.584Z,53.30
2018-03-03T10:51:51.660Z,56.50
2018-03-03T10:56:46.509Z,53.80
2018-03-03T10:59:13.574Z,48.60
2018-03-03T11:01:40.691Z,49.00
2018-03-03T11:04:07.767Z,46.60
2018-03-03T11:06:34.834Z,45.70
2018-03-03T11:09:01.976Z,49.00
2018-03-03T11:11:29.059Z,46.00
2018-03-03T11:13:56.168Z,46.70
2018-03-03T11:16:23.281Z,44.50
2018-03-03T11:18:50.356Z,42.40
2018-03-03T11:21:17.416Z,45.00
2018-03-03T11:23:44.531Z,44.80
2018-03-03T11:26:11.597Z,42.80
2018-03-03T11:28:38.657Z,44.00
2018-03-03T11:31:05.770Z,42.00
2018-03-03T11:33:33.809Z,42.10
2018-03-03T11:36:00.872Z,44.60
2018-03-03T11:38:28.418Z,44.00
2018-03-03T11:40:55.511Z,43.50
2018-03-03T11:43:22.603Z,43.90
2018-03-03T11:45:49.723Z,41.20
2018-03-03T11:48:17.239Z,41.30
2018-03-03T11:50:44.324Z,42.70
2018-03-03T11:53:11.432Z,42.10
2018-03-03T11:55:38.905Z,42.20
2018-03-03T11:58:05.973Z,41.50
2018-03-03T12:00:33.112Z,42.50
2018-03-03T12:03:00.210Z,42.70
2018-03-03T12:05:28.778Z,40.90
2018-03-03T12:10:34.253Z,39.70
2018-03-03T12:13:01.365Z,37.50
2018-03-03T12:15:29.082Z,36.40
2018-03-03T12:17:56.124Z,39.00
2018-03-03T12:20:23.251Z,39.50
2018-03-03T12:22:50.328Z,41.60
2018-03-03T12:25:17.399Z,39.70
2018-03-03T12:27:44.554Z,40.60
2018-03-03T12:30:11.627Z,40.40
2018-03-03T12:35:17.363Z,39.40
2018-03-03T12:37:44.964Z,38.60
2018-03-03T12:40:12.044Z,36.40
2018-03-03T12:42:39.166Z,38.00
2018-03-03T12:45:06.829Z,41.10
2018-03-03T12:47:33.941Z,41.10
2018-03-03T12:50:01.967Z,39.60
2018-03-03T12:55:13.493Z,40.30
2018-03-03T12:57:40.555Z,39.70
2018-03-03T13:00:07.628Z,40.50
2018-03-03T13:02:34.736Z,39.00
2018-03-03T13:05:01.812Z,38.80
2018-03-03T13:07:28.892Z,39.00
2018-03-03T13:09:56.007Z,37.70
2018-03-03T13:12:23.069Z,38.60
2018-03-03T13:14:50.128Z,39.40
2018-03-03T13:17:17.252Z,38.50
2018-03-03T13:19:44.304Z,40.00
2018-03-03T13:22:11.382Z,39.90
2018-03-03T13:24:38.465Z,40.00
2018-03-03T13:27:05.517Z,39.50
2018-03-03T13:29:33.040Z,38.80
2018-03-03T13:34:37.264Z,38.30
2018-03-03T13:37:05.758Z,37.60
2018-03-03T13:42:17.396Z,38.70
2018-03-03T13:44:44.444Z,38.00
2018-03-03T13:47:11.581Z,37.00
2018-03-03T13:49:38.607Z,39.60
2018-03-03T13:52:05.673Z,41.50
2018-03-03T13:54:32.765Z,39.10
2018-03-03T13:57:00.024Z,37.40
2018-03-03T13:59:27.010Z,38.90
2018-03-03T14:01:54.107Z,37.10
2018-03-03T14:04:21.240Z,36.60
2018-03-03T14:06:48.432Z,37.50
2018-03-03T14:09:15.394Z,37.00
2018-03-03T14:11:42.520Z,35.00
2018-03-03T14:16:47.764Z,36.70
2018-03-03T14:19:14.890Z,34.70
2018-03-03T14:21:41.958Z,34.50
2018-03-03T14:24:09.464Z,34.50
2018-03-03T14:26:36.530Z,34.50
2018-03-03T14:29:03.591Z,34.90
2018-03-03T14:31:34.321Z,32.70
2018-03-03T14:34:01.403Z,32.70
2018-03-03T14:36:28.489Z,34.30
2018-03-03T14:41:22.789Z,37.60
2018-03-03T14:48:55.209Z,39.20
2018-03-03T14:51:22.785Z,38.50
2018-03-03T14:53:49.841Z,39.10
2018-03-03T14:56:16.905Z,40.10
2018-03-03T14:58:44.052Z,39.50
2018-03-03T15:01:11.130Z,40.20
2018-03-03T15:03:38.191Z,40.50
2018-03-03T15:06:05.345Z,41.90
2018-03-03T15:08:32.456Z,42.30
2018-03-03T15:10:59.541Z,42.10
2018-03-03T15:13:26.719Z,42.90
2018-03-03T15:15:53.821Z,43.90
2018-03-03T15:18:21.756Z,44.80
2018-03-03T15:20:49.442Z,45.00
2018-03-03T15:23:16.511Z,45.60
2018-03-03T15:25:43.609Z,46.40
2018-03-03T15:28:10.786Z,46.30
2018-03-03T15:30:38.155Z,45.30
2018-03-03T15:33:05.734Z,45.10
2018-03-03T15:35:32.924Z,44.60
2018-03-03T15:37:59.956Z,44.40
2018-03-03T15:40:27.014Z,44.90
2018-03-03T15:42:54.128Z,45.20
2018-03-03T15:45:21.224Z,46.20
2018-03-03T15:47:49.223Z,46.60
2018-03-03T15:50:16.324Z,46.80
2018-03-03T15:52:43.392Z,46.90
2018-03-03T15:55:10.453Z,47.70
2018-03-03T16:00:06.190Z,48.00
2018-03-03T16:02:34.930Z,48.60
2018-03-03T16:05:02.071Z,49.40
2018-03-03T16:07:29.131Z,50.10
2018-03-03T16:12:35.641Z,51.10
2018-03-03T16:15:03.624Z,51.10
2018-03-03T16:17:31.176Z,50.80
2018-03-03T16:22:37.561Z,52.40
2018-03-03T16:25:04.149Z,51.70
2018-03-03T16:27:31.455Z,51.90
2018-03-03T16:29:58.505Z,52.50
2018-03-03T16:32:25.615Z,52.10
2018-03-03T16:39:47.015Z,52.90
2018-03-03T16:42:14.999Z,53.00
2018-03-03T16:44:42.090Z,53.40
2018-03-03T16:47:09.187Z,54.90
2018-03-03T16:49:36.243Z,55.00
2018-03-03T16:52:03.296Z,54.40
2018-03-03T16:54:30.407Z,54.30
2018-03-03T16:56:57.459Z,55.70
2018-03-03T16:59:24.508Z,56.30
2018-03-03T17:01:51.598Z,55.50
2018-03-03T17:04:18.649Z,56.60
2018-03-03T17:06:45.691Z,57.10
2018-03-03T17:11:53.915Z,56.30
2018-03-03T17:14:21.034Z,56.10
2018-03-03T17:16:48.092Z,55.30
2018-03-03T17:19:15.886Z,55.40
2018-03-03T17:24:11.778Z,57.50
2018-03-03T17:26:39.722Z,56.90
2018-03-03T17:29:06.827Z,56.80
2018-03-03T17:31:35.343Z,58.50
2018-03-03T17:34:02.437Z,58.40
2018-03-03T17:36:29.519Z,58.30
2018-03-03T17:38:56.581Z,59.10
2018-03-03T17:41:23.657Z,60.00
2018-03-03T17:43:50.777Z,61.80
2018-03-03T17:46:17.886Z,61.70
2018-03-03T17:48:44.912Z,61.60
2018-03-03T17:51:12.043Z,62.20
2018-03-03T17:53:39.604Z,61.90
2018-03-03T17:56:06.669Z,62.20
2018-03-03T17:58:33.797Z,63.10
2018-03-03T18:01:00.876Z,64.70
2018-03-03T18:03:28.889Z,64.10
2018-03-03T18:05:56.038Z,63.90
2018-03-03T18:08:23.939Z,63.60
2018-03-03T18:10:51.832Z,63.20
2018-03-03T18:16:01.624Z,61.90
2018-03-03T18:18:31.152Z,62.60
2018-03-03T18:20:58.216Z,61.40
2018-03-03T18:23:25.282Z,61.10
2018-03-03T18:25:52.437Z,63.00
2018-03-03T18:28:19.532Z,63.10
2018-03-03T18:30:46.596Z,63.00
2018-03-03T18:33:15.097Z,64.10
2018-03-03T18:35:42.435Z,65.40
2018-03-03T18:38:09.525Z,65.80
2018-03-03T18:40:37.624Z,66.10
2018-03-03T18:43:05.653Z,67.90
2018-03-03T18:48:01.454Z,67.90
2018-03-03T18:50:28.373Z,67.80
2018-03-03T18:52:55.432Z,67.90
2018-03-03T18:55:22.549Z,67.50
2018-03-03T18:57:49.598Z,67.90
2018-03-03T19:00:16.644Z,69.70
2018-03-03T19:02:43.772Z,69.70
2018-03-03T19:12:32.578Z,69.50
2018-03-03T19:14:59.644Z,69.50
2018-03-03T19:17:26.744Z,69.60
2018-03-03T19:19:53.810Z,70.50
2018-03-03T19:27:15.211Z,69.50
2018-03-03T19:29:42.265Z,68.80
2018-03-03T19:32:09.396Z,67.20
2018-03-03T19:34:36.419Z,67.90
2018-03-03T19:39:48.047Z,68.60
2018-03-03T19:42:15.116Z,70.10
2018-03-03T19:44:42.640Z,69.90
2018-03-03T19:47:09.761Z,70.10
2018-03-03T19:49:36.838Z,69.70
2018-03-03T19:52:03.964Z,69.00
2018-03-03T19:54:31.041Z,69.20
2018-03-03T19:59:43.418Z,70.50
2018-03-03T20:02:08.625Z,70.80
2018-03-03T20:04:35.661Z,70.60
2018-03-03T20:09:29.954Z,72.30
2018-03-03T20:14:24.280Z,72.50
2018-03-03T20:16:51.328Z,72.00
2018-03-03T20:19:18.407Z,74.90
2018-03-03T20:21:45.506Z,75.00
2018-03-03T20:24:13.623Z,74.30
2018-03-03T20:26:40.632Z,73.60
2018-03-03T20:29:07.729Z,73.50
2018-03-03T20:31:35.635Z,73.70
2018-03-03T20:34:02.684Z,74.30
2018-03-03T20:36:29.776Z,75.20
2018-03-03T20:38:56.831Z,76.20
2018-03-03T20:41:23.893Z,75.80
2018-03-03T20:43:51.097Z,75.60
2018-03-03T20:46:18.067Z,74.90
2018-03-03T20:48:45.133Z,74.80
2018-03-03T20:51:13.483Z,74.50
2018-03-03T20:53:40.530Z,74.70
2018-03-03T20:56:07.578Z,76.00
2018-03-03T20:58:34.804Z,75.00
2018-03-03T21:01:01.868Z,74.20
2018-03-03T21:03:28.964Z,73.90
2018-03-03T21:05:56.055Z,74.30
2018-03-03T21:11:03.663Z,73.80
2018-03-03T21:13:31.367Z,74.20
2018-03-03T21:15:58.353Z,74.00
2018-03-03T21:18:27.080Z,73.80
2018-03-03T21:20:54.121Z,75.20
2018-03-03T21:23:21.204Z,75.10
2018-03-03T21:25:48.452Z,75.10
2018-03-03T21:28:15.335Z,75.70
2018-03-03T21:30:42.383Z,77.60
2018-03-03T21:33:09.481Z,78.50
2018-03-03T21:35:40.046Z,78.90
2018-03-03T21:38:07.104Z,78.00
2018-03-03T21:40:34.214Z,79.40
2018-03-03T21:43:01.273Z,79.40
2018-03-03T21:45:29.361Z,78.80
2018-03-03T21:47:56.860Z,79.10
2018-03-03T21:50:23.946Z,79.80
2018-03-03T21:55:20.284Z,79.60
2018-03-03T21:57:47.641Z,78.90
2018-03-03T22:00:14.941Z,78.90
2018-03-03T22:05:19.779Z,78.50
2018-03-03T22:07:46.873Z,79.20
2018-03-03T22:10:13.972Z,79.00
2018-03-03T22:12:41.041Z,79.70
2018-03-03T22:15:08.184Z,79.70
2018-03-03T22:17:35.276Z,79.10
2018-03-03T22:20:02.860Z,79.60
2018-03-03T22:22:29.962Z,80.20
2018-03-03T22:27:24.349Z,80.40
2018-03-03T22:32:18.519Z,81.80
2018-03-03T22:37:23.745Z,82.10
2018-03-03T22:39:51.546Z,81.70
2018-03-03T22:42:18.581Z,80.70
2018-03-03T22:44:47.453Z,80.50
2018-03-03T22:47:12.727Z,79.90
2018-03-03T22:49:39.772Z,79.40
2018-03-03T22:52:06.875Z,79.50
2018-03-03T22:54:34.864Z,80.50
2018-03-03T22:57:02.859Z,81.30
2018-03-03T22:59:30.016Z,82.10
2018-03-03T23:01:57.067Z,82.60
2018-03-03T23:04:24.099Z,83.40
2018-03-03T23:06:52.072Z,84.50
2018-03-03T23:09:19.123Z,84.90
2018-03-03T23:11:47.283Z,85.10
2018-03-03T23:14:15.328Z,85.70
2018-03-03T23:16:42.386Z,85.10
2018-03-03T23:19:09.423Z,84.60
2018-03-03T23:24:04.618Z,83.70
2018-03-03T23:26:31.647Z,84.10
2018-03-03T23:28:58.749Z,83.90
2018-03-03T23:31:25.804Z,84.00
2018-03-03T23:33:53.124Z,84.60
2018-03-03T23:36:20.218Z,84.50
2018-03-03T23:38:47.283Z,85.20
2018-03-03T23:41:15.153Z,85.80
2018-03-03T23:43:43.203Z,87.10
2018-03-03T23:46:11.143Z,88.00
2018-03-03T23:53:32.531Z,88.80
2018-03-03T23:55:59.578Z,88.10
